< < Back
Terminal Aerodrome Forecast


Current Version              Previous Versions:   1  2  3  4  5  6  7  8  9  

Terminal Aerodrome Forecast

651
FTUS44 KMRX 251724
TAFTYS
TAF
KTYS 251724Z 2518/2618 VRB03KT P6SM SKC=

Latest METAR

708
SAUS80 KWBC 260000
MTRTYS
METAR KTYS 252353Z 31005KT 10SM BKN075 30/15 A3002 RMK AO2 SLP154
T03000150 10344 20300 53002


USA.gov is the U.S. government's official web portal to all federal, state and local government web resources and services.